Reek, Netherlands
Current Conditions -  °F | °C
As of 11:08 PM on Sunday 25 Jan 2015 (Local Time) from EHVK Reporting Station
Haze Haze  
Wind Chill: 34°   Ceiling: 3500
Heat Index: 39°   Visibility: 4mi
Dew Point: 37°   Wind: 8mph
Humidity: 93%   Direction: 200°SSW
Pressure: 30.3"   Gusts: NA
Location:  51.75°N, 5.68°E
Report Text: EHVK 252208Z AUTO 20007KT 7000 BR SCT028 BKN035 OVC048 04/03 Q1026 WHT
Loading
Personal Weather Stations






























Interactive Weather Map New forecast layout! Learn more

10-Day Weather Forecast

Advertisements
Track Severe Weather on mobile